EDT,Max TemperatureF,Mean TemperatureF,Min TemperatureF,Max Dew PointF,MeanDew PointF,Min DewpointF,Max Humidity, Mean Humidity, Min Humidity, Max Sea Level PressureIn, Mean Sea Level PressureIn, Min Sea Level PressureIn, Max VisibilityMiles, Mean VisibilityMiles, Min VisibilityMiles, Max Wind SpeedMPH, Mean Wind SpeedMPH, Max Gust SpeedMPH,PrecipitationIn, CloudCover, Events, WindDirDegrees
2012-9-1,80,70,61,65,60,56,87,74,54,30.15,30.04,29.91,10,8,2,8,1,,0.11,4,Rain,140
2012-9-2,75,67,57,58,55,51,87,68,51,30.19,30.13,30.09,10,10,10,8,1,,0.01,5,Rain,186
2012-9-3,77,66,55,57,54,51,94,74,43,30.26,30.21,30.17,10,7,0,9,1,,0.01,4,Fog,195
2012-9-4,73,66,63,65,61,54,88,82,65,30.15,30.06,29.88,10,6,2,6,2,,0.10,8,Rain,151
2012-9-5,81,72,64,70,67,61,88,79,52,29.88,29.79,29.74,10,8,2,17,9,26,0.64,7,Rain-Thunderstorm,209
2012-9-6,77,68,62,65,62,59,94,81,60,29.95,29.91,29.88,10,8,0,9,1,,0.01,5,Fog,204
2012-9-7,84,74,66,67,63,52,94,77,35,29.97,29.93,29.90,10,7,0,5,3,,0.00,5,Fog,191
2012-9-8,81,72,62,68,63,56,88,73,52,29.91,29.74,29.61,10,8,2,23,10,34,0.33,7,Rain-Thunderstorm,187
2012-9-9,75,64,54,56,52,47,84,69,44,29.90,29.84,29.74,10,10,10,7,2,,0.03,2,Rain,315
2012-9-10,66,56,48,50,44,38,86,62,38,30.09,29.99,29.91,10,10,10,9,3,20,0.00,4,,334
2012-9-11,72,58,44,51,42,37,86,58,30,30.30,30.22,30.11,10,10,10,8,2,,0.00,0,,297
2012-9-12,78,62,45,56,46,41,93,71,33,30.38,30.36,30.31,10,9,0,5,2,,0.01,1,Fog,188
2012-9-13,81,66,51,58,52,46,89,73,35,30.40,30.35,30.30,10,8,0,7,2,,0.01,1,Fog,188
2012-9-14,81,68,57,59,56,51,90,77,38,30.30,30.23,30.09,10,6,0,9,3,,0.01,3,Fog,201
2012-9-15,71,60,50,59,50,42,86,67,36,30.10,30.07,30.04,10,10,6,12,5,18,0.04,4,Rain,252
2012-9-16,69,56,44,44,40,30,86,62,24,30.12,30.08,30.04,10,10,10,8,4,17,0.00,0,,239
2012-9-17,75,57,39,55,45,36,87,69,38,30.14,30.09,30.05,10,10,8,8,2,,0.01,1,,190
2012-9-18,72,62,52,66,59,47,88,83,75,30.07,29.86,29.67,10,6,2,22,8,37,0.77,6,Rain,169
2012-9-19,69,57,44,64,47,35,84,63,31,30.24,29.95,29.69,10,9,2,14,8,25,0.08,4,Rain,262
2012-9-20,64,52,39,46,39,35,87,68,41,30.30,30.24,30.18,10,10,10,9,1,,0.00,2,,170
2012-9-21,68,55,44,49,45,40,87,73,47,30.20,30.15,30.09,10,10,10,8,1,,0.01,1,,160
2012-9-22,75,60,48,59,51,45,89,78,53,30.06,29.96,29.83,10,6,0,12,2,21,0.24,6,Fog-Rain,198
2012-9-23,64,54,44,57,46,37,87,68,37,30.12,29.97,29.83,10,10,5,12,3,17,0.16,2,Rain,264
2012-9-24,62,50,37,43,37,32,89,74,36,30.16,30.12,30.09,10,8,0,9,1,17,0.01,3,Fog,242
2012-9-25,69,54,39,50,40,35,87,64,33,30.18,30.15,30.11,10,10,10,13,3,22,0.01,1,,202
2012-9-26,69,64,59,58,55,51,81,74,60,30.13,30.07,30.02,10,10,10,13,7,20,0.00,7,Rain,205
2012-9-27,66,56,44,58,49,38,94,74,37,30.29,30.13,30.03,10,6,0,8,1,17,0.01,3,Fog-Rain,307
2012-9-28,53,48,43,48,46,38,88,86,79,30.29,30.16,30.06,10,4,1,6,1,,1.30,8,Rain,18
2012-9-29,57,54,51,52,49,46,94,84,77,30.02,29.95,29.89,10,7,2,6,2,,0.04,8,,30
2012-9-30,61,56,51,52,49,46,89,83,67,29.94,29.84,29.72,10,7,2,8,1,,0.04,7,Rain,187